Meteo Giornale » Osservazioni meteo Germania » Monaco-Riem

ore: 01:50 - Osservazioni Meteo Monaco-Riem
Lat. 48° 8' N Lon. 11° 42' E Alt. 529 metri s.l.m.

sereno Europe/Berlin

14 °C

Sereno

Temp. 24 Ore

10 °C

31 °C

Nord

0 Km/h

Dew point 13 °C

Umidità 93 %

Visibilità  10 Km

Il sole sorge alle ore 05:10

Il sole tramonta alle ore 21:18

Data e Ora Cielo e Fenomeni T °C DP °C Um. % Pres. hPa Vis. km Vento km/h
Oggi h: 01:50 sereno Sereno 14 13 93 1015 10 N 0
Oggi h: 01:20 sereno Sereno 15 13 87 1015 10 N 0
Oggi h: 00:50 sereno Sereno 15 13 87 1015 10 N 5.5
Oggi h: 00:20 sereno Sereno 16 13 82 1015 10 N 0
Ieri h: 23:50 sereno Sereno 17 14 82 1015 10 N 1.8
Ieri h: 23:20 sereno Sereno 17 13 77 1015 0 N 1.8
Ieri h: 22:50 sereno Sereno 18 14 77 1015 10 N 3.7
Ieri h: 22:20 sereno Sereno 19 13 68 1015 10 N 3.7
Ieri h: 21:50 sereno Sereno 20 14 68 1015 10 N 1.8
Ieri h: 21:20 sereno Sereno 22 15 64 1015 10 N 1.8
Ieri h: 20:50 sereno Sereno 25 16 57 1014 10 N 1.8
Ieri h: 20:20 sereno Sereno 28 13 39 1015 10 N 5.5
Ieri h: 19:50 sereno Sereno 29 11 32 1015 10 N 5.5
Ieri h: 19:20 sereno Sereno 30 11 30 1014 10 NE 7.4
Ieri h: 18:50 sereno Sereno 30 12 33 1014 10 NE 9.3
Ieri h: 18:20 sereno Sereno 30 12 33 1015 10 N 7.4
Ieri h: 17:50 sereno Sereno 30 11 30 1015 10 N/NE 9.3
Ieri h: 17:20 sereno Sereno 31 11 29 1015 10 N/NE 11.1
Ieri h: 16:50 sereno Sereno 31 11 29 1015 10 N 11.1
Ieri h: 16:20 sereno Sereno 31 12 31 1015 10 N 7.4
Ieri h: 15:50 sereno Sereno 30 11 30 1015 10 N 5.5
Ieri h: 15:20 sereno Sereno 30 12 33 1015 10 N 5.5
Ieri h: 14:50 sereno Sereno 30 13 35 1015 10 N 5.5
Ieri h: 14:20 sereno Sereno 30 13 35 1015 10 N 5.5
Ieri h: 13:50 sereno Sereno 29 14 39 1015 10 N 7.4
Ieri h: 13:20 sereno Sereno 29 13 37 1016 10 O/NO 7.4
Ieri h: 12:50 sereno Sereno 29 11 32 1016 10 N/NE 7.4
Ieri h: 12:20 sereno Sereno 28 14 42 1016 10 N 5.5
Ieri h: 11:50 sereno Sereno 27 14 44 1016 10 N 7.4
Ieri h: 11:20 sereno Sereno 26 15 50 1016 10 N 5.5
Ieri h: 10:50 sereno Sereno 26 15 50 1016 10 N 7.4
Ieri h: 10:20 sereno Sereno 24 14 53 1016 10 N 5.5
Ieri h: 09:50 sereno Sereno 23 14 56 1016 10 N 3.7
Ieri h: 09:20 sereno Sereno 22 13 56 1016 10 N 1.8
Ieri h: 08:50 sereno Sereno 21 13 60 1016 10 N 3.7
Ieri h: 08:20 sereno Sereno 20 12 59 1016 10 N 5.5
Ieri h: 07:50 sereno Sereno 20 13 64 1016 10 N 3.7
Ieri h: 07:20 sereno Sereno 18 13 72 1015 10 N 1.8
Ieri h: 06:50 sereno Sereno 16 13 82 1015 10 N 1.8
Ieri h: 06:20 sereno Sereno 13 11 87 1015 10 N 0
Ieri h: 05:50 sereno Sereno 11 9 87 1015 10 N 0
Ieri h: 05:20 sereno Sereno 10 9 93 1015 10 N 0
Ieri h: 04:50 sereno Sereno 10 9 93 1015 10 N 1.8
Ieri h: 04:20 sereno Sereno 11 10 93 1015 10 N 1.8
Ieri h: 03:50 sereno Sereno 10 9 93 1015 10 N 3.7
Ieri h: 03:20 sereno Sereno 11 10 93 1015 10 N 1.8
Ieri h: 02:50 sereno Sereno 11 10 93 1015 10 N 3.7